Nebraska Township, Illinois
Current Conditions -  °F | °C
As of 6:35 PM on Friday 31 Oct 2014 (Local Time) from KPNT Reporting Station
Overcast Overcast  
Wind Chill: 28°   Ceiling: 5000
Heat Index: 38°   Visibility: 10mi
Dew Point: 22°   Wind: 20mph
Humidity: 51%   Direction: 350°N
Pressure: 30.32"   Gusts: 26mph
Location:  40.8852°N, 88.8734°W
Report Text: KPNT 312335Z AUTO 35017G23KT 10SM OVC050 04/M06 A3032 RMK AO2 T00351057
Loading
Personal Weather Stations






























Interactive Weather Map
Tropical Storm Tracking
New forecast layout! Learn more

10-Day Weather Forecast

Advertisements
Track Severe Weather on mobile